createdAt,value
2023-01-26T00:02:00.274Z,88.57
2023-01-26T00:04:23.938Z,88.34
2023-01-26T00:06:47.518Z,88.45
2023-01-26T00:09:15.443Z,89.49
2023-01-26T00:11:39.620Z,90.43
2023-01-26T00:14:03.799Z,90.37
2023-01-26T00:16:28.562Z,90.11
2023-01-26T00:18:54.006Z,89.71
2023-01-26T00:21:19.246Z,89.20
2023-01-26T00:23:43.415Z,88.83
2023-01-26T00:26:08.756Z,90.46
2023-01-26T00:28:34.465Z,89.97
2023-01-26T00:31:04.831Z,90.55
2023-01-26T00:33:28.418Z,89.39
2023-01-26T00:35:57.307Z,89.27
2023-01-26T00:38:20.885Z,89.25
2023-01-26T00:40:44.378Z,90.13
2023-01-26T00:43:08.242Z,89.19
2023-01-26T00:45:31.769Z,89.07
2023-01-26T00:47:55.392Z,89.80
2023-01-26T00:50:19.584Z,89.65
2023-01-26T00:52:44.659Z,89.17
2023-01-26T00:55:09.370Z,89.49
2023-01-26T00:57:32.948Z,89.55
2023-01-26T00:59:56.478Z,88.97
2023-01-26T01:02:21.729Z,90.08
2023-01-26T01:04:46.045Z,90.06
2023-01-26T01:07:09.656Z,90.60
2023-01-26T01:09:35.142Z,91.83
2023-01-26T01:11:58.775Z,90.97
2023-01-26T01:14:22.315Z,90.91
2023-01-26T01:16:46.639Z,90.69
2023-01-26T01:19:12.759Z,91.16
2023-01-26T01:21:36.545Z,91.01
2023-01-26T01:24:00.294Z,90.07
2023-01-26T01:26:25.409Z,90.09
2023-01-26T01:28:48.946Z,90.76
2023-01-26T01:31:15.616Z,89.92
2023-01-26T01:33:39.625Z,89.74
2023-01-26T01:36:06.054Z,89.63
2023-01-26T01:38:30.112Z,89.89
2023-01-26T01:40:54.341Z,91.60
2023-01-26T01:43:19.820Z,90.96
2023-01-26T01:45:45.801Z,90.30
2023-01-26T01:48:21.282Z,90.29
2023-01-26T01:50:45.779Z,91.85
2023-01-26T01:53:14.540Z,90.45
2023-01-26T01:55:38.281Z,90.92
2023-01-26T01:58:04.825Z,90.95
2023-01-26T02:00:31.246Z,90.21
2023-01-26T02:03:12.000Z,90.53
2023-01-26T02:05:43.717Z,91.23
2023-01-26T02:08:09.747Z,90.78
2023-01-26T02:10:34.344Z,91.14
2023-01-26T02:13:00.720Z,93.03
2023-01-26T02:15:24.466Z,92.29
2023-01-26T02:17:49.547Z,90.37
2023-01-26T02:20:20.881Z,90.80
2023-01-26T02:22:52.984Z,89.79
2023-01-26T02:25:28.959Z,90.36
2023-01-26T02:27:54.962Z,90.52
2023-01-26T02:30:20.047Z,89.57
2023-01-26T02:32:43.733Z,92.23
2023-01-26T02:35:07.889Z,92.70
2023-01-26T02:37:31.532Z,90.61
2023-01-26T02:40:01.184Z,90.47
2023-01-26T02:42:39.156Z,90.67
2023-01-26T02:45:04.502Z,89.34
2023-01-26T02:47:28.042Z,89.17
2023-01-26T02:49:51.075Z,88.99
2023-01-26T02:52:17.616Z,89.94
2023-01-26T02:55:00.964Z,90.59
2023-01-26T02:57:24.645Z,90.37
2023-01-26T02:59:48.487Z,90.10
2023-01-26T03:02:13.803Z,90.27
2023-01-26T03:04:37.630Z,89.60
2023-01-26T03:07:01.288Z,89.93
2023-01-26T03:09:25.285Z,91.83
2023-01-26T03:11:48.881Z,92.59
2023-01-26T03:14:16.149Z,91.39
2023-01-26T03:16:40.294Z,90.39
2023-01-26T03:19:25.302Z,89.79
2023-01-26T03:22:06.486Z,90.46
2023-01-26T03:24:47.360Z,90.42
2023-01-26T03:27:29.496Z,90.35
2023-01-26T03:29:59.646Z,90.09
2023-01-26T03:32:23.328Z,89.80
2023-01-26T03:34:49.437Z,89.54
2023-01-26T03:37:13.275Z,89.90
2023-01-26T03:40:03.211Z,89.35
2023-01-26T03:42:44.293Z,89.25
2023-01-26T03:45:27.113Z,88.93
2023-01-26T03:48:08.489Z,89.82
2023-01-26T03:50:50.825Z,89.11
2023-01-26T03:53:33.933Z,88.28
2023-01-26T03:56:15.093Z,89.26
2023-01-26T03:58:38.672Z,88.90
2023-01-26T04:01:02.323Z,89.04
2023-01-26T04:03:43.445Z,88.57
2023-01-26T04:06:26.249Z,89.97
2023-01-26T04:08:50.048Z,90.92
2023-01-26T04:11:13.865Z,90.30
2023-01-26T04:13:55.157Z,89.40
2023-01-26T04:16:42.863Z,88.48
2023-01-26T04:19:23.946Z,89.68
2023-01-26T04:21:48.931Z,88.90
2023-01-26T04:24:17.137Z,88.58
2023-01-26T04:26:43.440Z,87.50
2023-01-26T04:29:14.667Z,87.75
2023-01-26T04:31:40.499Z,88.23
2023-01-26T04:34:06.101Z,86.90
2023-01-26T04:38:55.131Z,87.27
2023-01-26T04:41:19.557Z,86.99
2023-01-26T04:43:48.230Z,87.26
2023-01-26T04:46:14.548Z,87.69
2023-01-26T04:48:38.795Z,86.61
2023-01-26T04:51:06.143Z,87.17
2023-01-26T04:53:29.847Z,88.75
2023-01-26T04:55:55.634Z,88.28
2023-01-26T04:58:19.385Z,88.70
2023-01-26T05:00:43.278Z,87.93
2023-01-26T05:03:08.446Z,88.18
2023-01-26T05:05:38.084Z,87.85
2023-01-26T05:08:01.765Z,87.18
2023-01-26T05:10:27.569Z,87.71
2023-01-26T05:13:14.189Z,87.79
2023-01-26T05:15:57.759Z,87.18
2023-01-26T05:18:35.335Z,87.86
2023-01-26T05:21:14.169Z,89.40
2023-01-26T05:23:42.718Z,89.58
2023-01-26T05:26:06.800Z,90.69
2023-01-26T05:28:42.228Z,89.92
2023-01-26T05:31:06.494Z,89.87
2023-01-26T05:33:30.372Z,89.80
2023-01-26T05:35:55.430Z,88.97
2023-01-26T05:38:19.733Z,89.38
2023-01-26T05:40:44.440Z,89.87
2023-01-26T05:43:08.374Z,88.62
2023-01-26T05:46:03.615Z,89.77
2023-01-26T05:48:27.454Z,89.03
2023-01-26T05:50:51.086Z,89.91
2023-01-26T05:53:16.905Z,89.49
2023-01-26T05:55:40.721Z,89.76
2023-01-26T05:58:04.408Z,89.87
2023-01-26T06:00:28.289Z,89.59
2023-01-26T06:03:00.910Z,91.65
2023-01-26T06:05:25.135Z,92.68
2023-01-26T06:07:49.258Z,91.24
2023-01-26T06:10:21.522Z,91.63
2023-01-26T06:13:08.165Z,90.17
2023-01-26T06:15:37.983Z,90.38
2023-01-26T06:18:03.972Z,90.23
2023-01-26T06:20:27.806Z,91.88
2023-01-26T06:22:54.955Z,90.17
2023-01-26T06:25:18.684Z,91.01
2023-01-26T06:27:42.660Z,91.59
2023-01-26T06:30:17.571Z,91.08
2023-01-26T06:32:41.239Z,90.07
2023-01-26T06:35:08.486Z,88.86
2023-01-26T06:37:32.221Z,89.58
2023-01-26T06:39:55.742Z,89.77
2023-01-26T06:42:19.395Z,90.47
2023-01-26T06:44:42.961Z,90.81
2023-01-26T06:47:08.780Z,89.75
2023-01-26T06:49:33.195Z,91.51
2023-01-26T06:52:06.791Z,90.38
2023-01-26T06:54:44.714Z,90.62
2023-01-26T06:57:19.528Z,90.18
2023-01-26T07:00:00.339Z,89.77
2023-01-26T07:02:32.289Z,88.76
2023-01-26T07:04:55.965Z,88.69
2023-01-26T07:07:20.865Z,89.09
2023-01-26T07:09:44.474Z,89.87
2023-01-26T07:12:08.812Z,88.77
2023-01-26T07:14:33.480Z,89.14
2023-01-26T07:16:57.167Z,88.75
2023-01-26T07:19:20.933Z,88.97
2023-01-26T07:21:44.451Z,88.82
2023-01-26T07:24:10.690Z,89.60
2023-01-26T07:26:34.178Z,92.06
2023-01-26T07:28:57.852Z,89.90
2023-01-26T07:31:21.459Z,90.29
2023-01-26T07:33:45.094Z,90.50
2023-01-26T07:36:11.087Z,88.98
2023-01-26T07:38:35.479Z,87.89
2023-01-26T07:41:00.375Z,87.31
2023-01-26T07:43:23.962Z,87.83
2023-01-26T07:45:52.447Z,87.04
2023-01-26T07:48:16.807Z,86.69
2023-01-26T07:50:40.403Z,87.01
2023-01-26T07:53:04.018Z,85.94
2023-01-26T07:55:27.584Z,85.69
2023-01-26T07:57:52.678Z,85.13
2023-01-26T08:00:17.960Z,84.92
2023-01-26T08:02:41.688Z,85.76
2023-01-26T08:05:06.550Z,85.45
2023-01-26T08:07:30.101Z,85.78
2023-01-26T08:09:53.619Z,86.13
2023-01-26T08:12:17.157Z,87.70
2023-01-26T08:14:47.136Z,87.38
2023-01-26T08:17:10.924Z,87.69
2023-01-26T08:19:34.423Z,87.56
2023-01-26T08:21:58.118Z,87.51
2023-01-26T08:24:21.799Z,87.69
2023-01-26T08:26:45.386Z,87.64
2023-01-26T08:29:09.149Z,88.20
2023-01-26T08:31:34.548Z,88.16
2023-01-26T08:33:58.144Z,87.12
2023-01-26T08:36:23.014Z,87.08
2023-01-26T08:38:46.999Z,87.50
2023-01-26T08:41:11.268Z,87.94
2023-01-26T08:43:35.014Z,87.79
2023-01-26T08:45:59.206Z,88.18
2023-01-26T08:48:24.180Z,88.42
2023-01-26T08:50:47.879Z,88.44
2023-01-26T08:53:11.469Z,88.85
2023-01-26T08:55:36.312Z,88.87
2023-01-26T08:58:00.855Z,88.21
2023-01-26T09:00:26.203Z,88.58
2023-01-26T09:02:50.546Z,88.86
2023-01-26T09:05:15.856Z,88.45
2023-01-26T09:07:39.360Z,88.26
2023-01-26T09:10:02.919Z,88.81
2023-01-26T09:12:26.460Z,89.87
2023-01-26T09:14:50.076Z,89.55
2023-01-26T09:17:13.562Z,88.68
2023-01-26T09:19:37.322Z,89.84
2023-01-26T09:22:02.243Z,89.94
2023-01-26T09:24:26.277Z,89.22
2023-01-26T09:26:49.885Z,88.74
2023-01-26T09:29:13.446Z,88.56
2023-01-26T09:31:37.032Z,88.67
2023-01-26T09:34:00.692Z,89.35
2023-01-26T09:36:24.182Z,90.60
2023-01-26T09:38:49.723Z,90.24
2023-01-26T09:41:33.633Z,89.47
2023-01-26T09:44:01.763Z,89.31
2023-01-26T09:46:30.596Z,89.31
2023-01-26T09:49:07.048Z,90.13
2023-01-26T09:51:36.795Z,90.20
2023-01-26T09:54:07.803Z,89.08
2023-01-26T09:56:34.033Z,88.55
2023-01-26T09:59:03.240Z,88.63
2023-01-26T10:01:37.997Z,89.04
2023-01-26T10:04:07.367Z,90.21
2023-01-26T10:06:32.400Z,89.32
2023-01-26T10:09:19.881Z,89.84
2023-01-26T10:11:49.450Z,89.44
2023-01-26T10:14:19.554Z,88.42
2023-01-26T10:16:47.090Z,88.66
2023-01-26T10:19:20.556Z,88.58
2023-01-26T10:21:49.008Z,89.50
2023-01-26T10:24:22.980Z,88.65
2023-01-26T10:26:46.935Z,87.99
2023-01-26T10:29:16.821Z,87.76
2023-01-26T10:31:40.470Z,88.22
2023-01-26T10:34:13.228Z,88.07
2023-01-26T10:36:36.847Z,87.31
2023-01-26T10:39:07.911Z,87.71
2023-01-26T10:41:33.681Z,87.56
2023-01-26T10:44:01.244Z,87.59
2023-01-26T10:46:32.552Z,86.24
2023-01-26T10:48:57.816Z,86.63
2023-01-26T10:51:29.590Z,86.55
2023-01-26T10:54:15.316Z,86.68
2023-01-26T10:56:46.613Z,86.15
2023-01-26T10:59:10.763Z,86.67
2023-01-26T11:01:54.161Z,87.06
2023-01-26T11:04:17.888Z,86.32
2023-01-26T11:06:41.824Z,86.49
2023-01-26T11:09:19.355Z,85.92
2023-01-26T11:11:59.368Z,85.09
2023-01-26T11:14:23.431Z,85.79
2023-01-26T11:16:52.023Z,85.20
2023-01-26T11:19:24.054Z,85.19
2023-01-26T11:21:53.830Z,85.58
2023-01-26T11:24:27.372Z,84.92
2023-01-26T11:27:24.248Z,84.32
2023-01-26T11:30:33.304Z,85.32
2023-01-26T11:33:04.844Z,84.74
2023-01-26T11:35:40.837Z,85.91
2023-01-26T11:38:25.760Z,86.34
2023-01-26T11:40:55.919Z,85.59
2023-01-26T11:44:06.013Z,86.36
2023-01-26T11:46:55.518Z,85.43
2023-01-26T11:49:36.957Z,84.50
2023-01-26T11:52:12.610Z,84.98
2023-01-26T11:55:00.111Z,85.90
2023-01-26T11:57:32.231Z,85.05
2023-01-26T12:00:05.513Z,84.81
2023-01-26T12:02:38.918Z,85.23
2023-01-26T12:05:14.416Z,86.53
2023-01-26T12:07:54.681Z,85.84
2023-01-26T12:10:22.397Z,85.39
2023-01-26T12:12:52.446Z,85.91
2023-01-26T12:15:22.832Z,84.19
2023-01-26T12:17:59.819Z,84.24
2023-01-26T12:20:32.923Z,84.81
2023-01-26T12:23:05.055Z,83.91
2023-01-26T12:25:35.781Z,83.50
2023-01-26T12:28:15.828Z,85.19
2023-01-26T12:30:52.996Z,84.58
2023-01-26T12:33:16.917Z,84.20
2023-01-26T12:36:01.176Z,84.94
2023-01-26T12:38:42.004Z,83.88
2023-01-26T12:41:15.759Z,85.86
2023-01-26T12:43:54.107Z,84.49
2023-01-26T12:46:19.837Z,86.10
2023-01-26T12:48:46.857Z,84.63
2023-01-26T12:51:16.972Z,83.68
2023-01-26T12:53:53.441Z,83.51
2023-01-26T12:56:25.368Z,84.69
2023-01-26T12:58:51.638Z,84.76
2023-01-26T13:01:20.394Z,83.32
2023-01-26T13:03:47.193Z,82.89
2023-01-26T13:06:23.534Z,84.42
2023-01-26T13:09:04.541Z,84.94
2023-01-26T13:11:50.464Z,84.29
2023-01-26T13:14:36.670Z,85.09
2023-01-26T13:17:50.351Z,85.26
2023-01-26T13:20:50.385Z,84.53
2023-01-26T13:23:41.806Z,84.51
2023-01-26T13:26:44.998Z,84.50
2023-01-26T13:29:34.556Z,84.61
2023-01-26T13:32:02.154Z,85.10
2023-01-26T13:34:31.072Z,85.90
2023-01-26T13:36:59.224Z,86.76
2023-01-26T13:39:31.302Z,86.99
2023-01-26T13:41:55.029Z,87.88
2023-01-26T13:44:23.621Z,86.78
2023-01-26T13:46:53.473Z,86.60
2023-01-26T13:49:28.585Z,86.77
2023-01-26T13:51:52.238Z,85.96
2023-01-26T13:54:17.920Z,87.45
2023-01-26T13:56:43.437Z,86.34
2023-01-26T13:59:13.095Z,86.88
2023-01-26T14:01:43.965Z,87.38
2023-01-26T14:04:09.112Z,87.09
2023-01-26T14:06:35.376Z,86.85
2023-01-26T14:08:59.336Z,88.15
2023-01-26T14:11:27.916Z,87.53
2023-01-26T14:13:56.094Z,86.71
2023-01-26T14:16:26.557Z,86.42
2023-01-26T14:18:52.091Z,85.61
2023-01-26T14:21:21.755Z,86.02
2023-01-26T14:23:46.706Z,87.45
2023-01-26T14:26:21.420Z,87.81
2023-01-26T14:28:45.568Z,86.99
2023-01-26T14:31:16.822Z,88.03
2023-01-26T14:33:40.581Z,89.08
2023-01-26T14:36:06.773Z,87.89
2023-01-26T14:38:33.071Z,88.19
2023-01-26T14:41:00.822Z,87.49
2023-01-26T14:43:25.428Z,86.60
2023-01-26T14:45:54.984Z,86.49
2023-01-26T14:48:23.655Z,85.90
2023-01-26T14:50:49.443Z,85.58
2023-01-26T14:53:22.174Z,86.12
2023-01-26T14:55:46.163Z,85.87
2023-01-26T14:58:21.494Z,86.20
2023-01-26T15:00:50.164Z,85.62
2023-01-26T15:03:23.291Z,86.01
2023-01-26T15:05:46.866Z,85.74
2023-01-26T15:08:23.729Z,86.16
2023-01-26T15:11:16.453Z,86.27
2023-01-26T15:13:43.617Z,85.94
2023-01-26T15:16:16.495Z,85.23
2023-01-26T15:18:40.126Z,86.31
2023-01-26T15:21:15.378Z,85.91
2023-01-26T15:23:42.957Z,85.90
2023-01-26T15:26:10.416Z,86.37
2023-01-26T15:28:35.018Z,85.66
2023-01-26T15:31:00.841Z,84.52
2023-01-26T15:33:50.718Z,84.84
2023-01-26T15:36:33.867Z,85.78
2023-01-26T15:39:13.994Z,84.75
2023-01-26T15:41:37.575Z,84.67
2023-01-26T15:44:01.818Z,84.82
2023-01-26T15:46:27.312Z,84.37
2023-01-26T15:48:50.987Z,84.69
2023-01-26T15:51:15.256Z,83.56
2023-01-26T15:53:38.798Z,84.60
2023-01-26T15:56:02.397Z,84.01
2023-01-26T15:58:28.806Z,84.42
2023-01-26T16:00:53.447Z,84.09
2023-01-26T16:03:21.154Z,83.09
2023-01-26T16:05:47.826Z,83.07
2023-01-26T16:08:11.707Z,83.36
2023-01-26T16:10:35.547Z,83.86
2023-01-26T16:12:59.064Z,84.04
2023-01-26T16:15:32.814Z,84.08
2023-01-26T16:17:56.583Z,84.10
2023-01-26T16:20:22.070Z,85.45
2023-01-26T16:22:45.673Z,84.60
2023-01-26T16:25:24.833Z,84.05
2023-01-26T16:27:48.592Z,84.26
2023-01-26T16:30:12.992Z,84.13
2023-01-26T16:32:36.586Z,84.21
2023-01-26T16:35:00.205Z,84.36
2023-01-26T16:37:25.387Z,84.36
2023-01-26T16:39:48.976Z,83.84
2023-01-26T16:42:17.095Z,83.81
2023-01-26T16:44:40.699Z,84.34
2023-01-26T16:47:06.396Z,83.62
2023-01-26T16:49:30.017Z,84.52
2023-01-26T16:51:53.609Z,84.05
2023-01-26T16:54:18.490Z,83.93
2023-01-26T16:56:42.406Z,84.45
2023-01-26T16:59:06.186Z,83.57
2023-01-26T17:01:34.500Z,84.43
2023-01-26T17:03:58.425Z,84.20
2023-01-26T17:06:22.028Z,84.09
2023-01-26T17:08:46.135Z,84.05
2023-01-26T17:11:17.942Z,84.25
2023-01-26T17:13:41.536Z,84.68
2023-01-26T17:16:05.538Z,84.43
2023-01-26T17:18:29.368Z,84.17
2023-01-26T17:20:53.044Z,84.03
2023-01-26T17:23:16.695Z,86.47
2023-01-26T17:25:40.262Z,84.79
2023-01-26T17:28:06.012Z,84.30
2023-01-26T17:30:29.755Z,84.62
2023-01-26T17:32:53.450Z,84.95
2023-01-26T17:35:17.569Z,84.93
2023-01-26T17:37:41.628Z,84.65
2023-01-26T17:40:07.646Z,85.04
2023-01-26T17:42:33.457Z,84.56
2023-01-26T17:44:58.804Z,85.49
2023-01-26T17:47:22.871Z,87.07
2023-01-26T17:49:46.481Z,86.31
2023-01-26T17:52:12.399Z,86.26
2023-01-26T17:54:36.183Z,86.69
2023-01-26T17:57:00.880Z,87.62
2023-01-26T17:59:25.334Z,86.61
2023-01-26T18:01:50.311Z,85.74
2023-01-26T18:04:13.965Z,86.06
2023-01-26T18:06:38.802Z,85.81
2023-01-26T18:09:02.359Z,86.69
2023-01-26T18:11:26.120Z,86.31
2023-01-26T18:13:51.796Z,86.01
2023-01-26T18:16:17.992Z,86.45
2023-01-26T18:18:42.981Z,85.15
2023-01-26T18:21:15.363Z,86.00
2023-01-26T18:23:39.142Z,86.78
2023-01-26T18:26:05.076Z,86.86
2023-01-26T18:28:29.189Z,86.59
2023-01-26T18:30:52.963Z,86.30
2023-01-26T18:33:16.560Z,85.41
2023-01-26T18:35:41.656Z,84.91
2023-01-26T18:38:05.318Z,85.81
2023-01-26T18:40:28.955Z,85.54
2023-01-26T18:42:56.019Z,86.13
2023-01-26T18:45:19.540Z,86.87
2023-01-26T18:47:43.121Z,86.93
2023-01-26T18:50:08.554Z,86.18
2023-01-26T18:52:33.569Z,86.78
2023-01-26T18:54:57.077Z,87.36
2023-01-26T18:57:20.792Z,87.73
2023-01-26T18:59:44.367Z,86.96
2023-01-26T19:02:08.659Z,87.05
2023-01-26T19:04:32.524Z,88.22
2023-01-26T19:06:56.190Z,87.54
2023-01-26T19:09:21.373Z,87.92
2023-01-26T19:11:44.987Z,87.71
2023-01-26T19:14:09.906Z,87.46
2023-01-26T19:16:34.150Z,87.84
2023-01-26T19:18:57.923Z,87.55
2023-01-26T19:21:24.386Z,86.71
2023-01-26T19:23:48.127Z,87.55
2023-01-26T19:26:15.498Z,87.91
2023-01-26T19:28:41.524Z,89.25
2023-01-26T19:31:05.365Z,90.01
2023-01-26T19:33:29.163Z,89.69
2023-01-26T19:35:53.381Z,89.79
2023-01-26T19:38:17.380Z,89.21
2023-01-26T19:40:41.122Z,88.76
2023-01-26T19:43:07.011Z,88.65
2023-01-26T19:45:30.771Z,89.45
2023-01-26T19:47:54.312Z,90.68
2023-01-26T19:50:18.764Z,89.57
2023-01-26T19:52:42.489Z,90.09
2023-01-26T19:55:06.862Z,89.58
2023-01-26T19:57:33.055Z,89.09
2023-01-26T19:59:58.054Z,89.30
2023-01-26T20:02:21.619Z,88.43
2023-01-26T20:04:45.751Z,89.65
2023-01-26T20:07:09.320Z,89.29
2023-01-26T20:09:34.633Z,88.83
2023-01-26T20:11:58.132Z,89.21
2023-01-26T20:14:21.855Z,88.35
2023-01-26T20:16:46.815Z,87.79
2023-01-26T20:19:12.243Z,88.61
2023-01-26T20:21:36.996Z,88.29
2023-01-26T20:24:05.727Z,87.74
2023-01-26T20:26:29.979Z,88.76
2023-01-26T20:28:57.707Z,89.31
2023-01-26T20:31:24.560Z,89.12
2023-01-26T20:33:51.292Z,88.42
2023-01-26T20:36:17.918Z,88.05
2023-01-26T20:38:41.686Z,88.77
2023-01-26T20:41:08.937Z,88.37
2023-01-26T20:43:32.618Z,88.35
2023-01-26T20:45:56.223Z,88.83
2023-01-26T20:48:19.853Z,89.46
2023-01-26T20:50:45.036Z,90.29
2023-01-26T20:53:08.845Z,90.31
2023-01-26T20:55:33.088Z,89.89
2023-01-26T20:57:59.151Z,88.94
2023-01-26T21:00:24.006Z,89.37
2023-01-26T21:02:47.618Z,90.46
2023-01-26T21:05:11.486Z,90.70
2023-01-26T21:07:36.529Z,90.30
2023-01-26T21:10:00.058Z,90.43
2023-01-26T21:12:23.649Z,89.27
2023-01-26T21:14:47.259Z,91.16
2023-01-26T21:17:10.907Z,91.28
2023-01-26T21:19:34.530Z,90.11
2023-01-26T21:21:59.396Z,89.76
2023-01-26T21:24:24.695Z,90.28
2023-01-26T21:26:48.973Z,91.21
2023-01-26T21:29:16.636Z,89.13
2023-01-26T21:31:40.388Z,89.78
2023-01-26T21:34:03.967Z,90.81
2023-01-26T21:36:30.778Z,90.29
2023-01-26T21:38:59.016Z,89.35
2023-01-26T21:41:43.727Z,89.46
2023-01-26T21:44:11.178Z,88.32
2023-01-26T21:46:35.843Z,88.13
2023-01-26T21:48:59.936Z,87.90
2023-01-26T21:51:41.389Z,88.28
2023-01-26T21:54:08.257Z,89.31
2023-01-26T21:56:33.490Z,89.07
2023-01-26T21:59:02.522Z,89.43
2023-01-26T22:01:27.787Z,90.44
2023-01-26T22:03:51.645Z,91.00
2023-01-26T22:06:15.267Z,91.48
2023-01-26T22:08:39.857Z,90.53
2023-01-26T22:11:04.088Z,90.56
2023-01-26T22:13:29.312Z,91.54
2023-01-26T22:15:53.539Z,91.78
2023-01-26T22:18:18.096Z,91.42
2023-01-26T22:20:42.117Z,91.23
2023-01-26T22:23:06.081Z,91.77
2023-01-26T22:25:29.612Z,91.82
2023-01-26T22:27:53.962Z,92.61
2023-01-26T22:30:19.845Z,92.02
2023-01-26T22:32:44.745Z,92.46
2023-01-26T22:35:08.963Z,90.21
2023-01-26T22:37:33.013Z,92.04
2023-01-26T22:39:56.559Z,93.39
2023-01-26T22:42:20.264Z,92.88
2023-01-26T22:44:44.484Z,93.65
2023-01-26T22:47:09.785Z,93.98
2023-01-26T22:49:33.929Z,93.39
2023-01-26T22:51:57.634Z,92.79
2023-01-26T22:54:21.395Z,92.51
2023-01-26T22:56:45.808Z,92.80
2023-01-26T22:59:10.380Z,92.44
2023-01-26T23:01:34.832Z,91.84
2023-01-26T23:04:01.986Z,91.67
2023-01-26T23:06:26.124Z,91.35
2023-01-26T23:08:49.895Z,91.26
2023-01-26T23:11:17.284Z,90.52
2023-01-26T23:13:42.388Z,90.14
2023-01-26T23:16:07.661Z,91.20
2023-01-26T23:18:31.578Z,90.99
2023-01-26T23:20:58.460Z,90.37
2023-01-26T23:23:23.595Z,90.06
2023-01-26T23:25:52.828Z,91.09
2023-01-26T23:28:16.327Z,90.46
2023-01-26T23:30:39.947Z,91.80
2023-01-26T23:33:03.550Z,91.97
2023-01-26T23:35:27.220Z,91.06
2023-01-26T23:37:52.115Z,90.21
2023-01-26T23:40:16.096Z,91.13
2023-01-26T23:43:00.357Z,89.95
2023-01-26T23:45:23.229Z,90.22
2023-01-26T23:47:46.779Z,91.45
2023-01-26T23:50:12.621Z,92.28
2023-01-26T23:52:36.282Z,92.52
2023-01-26T23:55:01.280Z,92.60
2023-01-26T23:57:24.849Z,91.45
2023-01-26T23:59:48.438Z,91.26
